createdAt,value
2018-07-20T04:49:13.967Z,80.99
2018-07-20T06:27:41.690Z,67.35
2018-07-20T06:28:44.369Z,66.87
2018-07-20T06:41:15.079Z,60.24
2018-07-20T06:42:13.199Z,59.94
2018-07-20T06:43:29.092Z,59.47
2018-07-20T06:46:00.302Z,58.92
2018-07-20T06:49:54.658Z,58.56
2018-07-20T06:50:56.614Z,58.85
2018-07-20T06:53:43.524Z,58.11
2018-07-20T06:54:48.554Z,58.20
2018-07-20T06:55:45.918Z,58.40
2018-07-20T07:05:48.718Z,56.24
2018-07-20T07:11:55.711Z,55.10
2018-07-20T07:12:53.841Z,55.20
2018-07-20T07:21:16.449Z,53.61
2018-07-20T07:22:17.397Z,53.81
2018-07-20T07:23:13.280Z,54.29
2018-07-20T07:24:17.303Z,53.64
2018-07-20T07:25:15.496Z,53.55
2018-07-20T07:27:33.591Z,53.74
2018-07-20T07:30:11.586Z,51.44
2018-07-20T07:31:17.733Z,50.67
2018-07-20T07:32:22.787Z,49.44
2018-07-20T07:33:11.265Z,50.89
2018-07-20T07:34:10.896Z,50.50
2018-07-20T07:35:09.834Z,48.27
2018-07-20T07:36:10.944Z,47.79
2018-07-20T07:37:10.478Z,49.05
2018-07-20T07:38:08.669Z,49.24
2018-07-20T07:39:08.060Z,49.46
2018-07-20T07:40:08.186Z,47.72
2018-07-20T07:41:08.408Z,47.31
2018-07-20T07:42:08.719Z,47.41
2018-07-20T07:43:08.549Z,48.27
2018-07-20T07:44:08.724Z,47.62
2018-07-20T07:45:08.875Z,47.62
2018-07-20T07:46:09.050Z,46.36
2018-07-20T07:47:09.385Z,47.43
2018-07-20T07:48:09.571Z,48.79
2018-07-20T07:49:09.902Z,47.52
2018-07-20T07:50:09.959Z,46.67
2018-07-20T07:51:09.920Z,47.74
2018-07-20T07:52:10.109Z,46.00
2018-07-20T07:53:10.312Z,46.67
2018-07-20T07:54:10.644Z,46.09
2018-07-20T07:55:10.765Z,45.61
2018-07-20T07:56:11.149Z,45.61
2018-07-20T07:57:11.151Z,46.02
2018-07-20T07:58:11.287Z,46.02
2018-07-20T07:59:11.585Z,45.25
2018-07-20T08:00:11.702Z,44.96
2018-07-20T08:01:23.535Z,45.07
2018-07-20T08:02:15.112Z,45.56
2018-07-20T08:03:17.965Z,44.59
2018-07-20T08:04:15.184Z,44.78
2018-07-20T08:05:15.559Z,44.49
2018-07-20T08:06:13.585Z,44.30
2018-07-20T08:07:12.973Z,44.01
2018-07-20T08:08:13.279Z,43.91
2018-07-20T08:09:13.227Z,44.01
2018-07-20T08:10:15.248Z,42.86
2018-07-20T08:11:14.375Z,43.74
2018-07-20T08:12:14.169Z,43.08
2018-07-20T08:13:14.667Z,42.43
2018-07-20T08:14:15.688Z,42.35
2018-07-20T08:15:15.936Z,40.60
2018-07-20T08:16:14.980Z,40.42
2018-07-20T08:17:40.228Z,39.55
2018-07-20T08:19:25.864Z,39.57
2018-07-20T08:25:02.471Z,35.16
2018-07-20T08:26:55.005Z,36.55
2018-07-20T08:31:56.475Z,33.44
2018-07-20T08:36:09.088Z,33.95
2018-07-20T08:39:44.410Z,35.31
2018-07-20T08:40:48.299Z,35.51
2018-07-20T08:41:49.343Z,34.63
2018-07-20T08:42:45.787Z,33.58
2018-07-20T08:43:42.593Z,33.20
2018-07-20T08:44:44.490Z,32.81
2018-07-20T08:45:42.327Z,32.53
2018-07-20T08:46:41.852Z,33.90
2018-07-20T08:47:40.768Z,32.34
2018-07-20T08:48:40.959Z,32.53
2018-07-20T08:49:41.123Z,32.03
2018-07-20T08:50:41.505Z,32.32
2018-07-20T08:51:41.644Z,32.52
2018-07-20T08:52:42.225Z,32.52
2018-07-20T08:53:41.901Z,34.06
2018-07-20T08:54:42.435Z,33.97
2018-07-20T08:55:42.405Z,33.65
2018-07-20T08:56:42.411Z,34.05
2018-07-20T08:57:42.617Z,33.95
2018-07-20T08:58:42.994Z,35.12
2018-07-20T08:59:43.454Z,35.02
2018-07-20T09:00:43.139Z,35.61
2018-07-20T09:01:43.438Z,35.12
2018-07-20T09:02:44.577Z,35.59
2018-07-20T09:03:44.512Z,35.12
2018-07-20T09:04:44.238Z,34.73
2018-07-20T09:05:44.233Z,34.52
2018-07-20T09:06:44.303Z,33.54
2018-07-20T09:07:44.539Z,34.61
2018-07-20T09:08:44.810Z,34.61
2018-07-20T09:09:44.980Z,33.83
2018-07-20T09:10:45.482Z,34.52
2018-07-20T09:11:45.305Z,33.82
2018-07-20T09:12:46.127Z,34.31
2018-07-20T09:14:45.766Z,33.64
2018-07-20T09:15:45.950Z,33.85
2018-07-20T09:16:46.397Z,33.54
2018-07-20T09:17:46.339Z,33.54
2018-07-20T09:18:46.751Z,31.60
2018-07-20T09:19:46.821Z,31.51
2018-07-20T09:20:47.258Z,31.22
2018-07-20T09:21:47.257Z,31.99
2018-07-20T09:22:47.908Z,31.80
2018-07-20T09:23:47.501Z,30.94
2018-07-20T09:24:47.846Z,30.06
2018-07-20T09:25:48.343Z,30.74
2018-07-20T09:26:48.491Z,30.16
2018-07-20T09:27:48.544Z,30.16
2018-07-20T09:28:48.409Z,31.52
2018-07-20T09:29:48.568Z,31.35
2018-07-20T09:30:48.929Z,30.57
2018-07-20T09:31:49.761Z,29.88
2018-07-20T09:32:49.582Z,28.52
2018-07-20T09:33:49.809Z,28.71
2018-07-20T09:34:49.515Z,27.64
2018-07-20T09:35:50.398Z,28.23
2018-07-20T09:36:50.184Z,27.65
2018-07-20T09:37:50.171Z,26.48
2018-07-20T09:38:50.381Z,26.48
2018-07-20T09:39:52.451Z,27.26
2018-07-20T09:40:50.844Z,27.84
2018-07-20T09:41:51.119Z,27.65
2018-07-20T09:42:51.164Z,27.75
2018-07-20T09:43:51.081Z,26.28
2018-07-20T09:44:51.257Z,27.65
2018-07-20T09:45:51.399Z,26.29
2018-07-20T09:46:51.635Z,25.21
2018-07-20T09:47:52.674Z,25.81
2018-07-20T09:48:51.984Z,26.10
2018-07-20T09:49:52.194Z,24.92
2018-07-20T09:50:52.792Z,25.04
2018-07-20T09:51:52.563Z,25.92
2018-07-20T09:52:52.716Z,26.11
2018-07-20T09:53:52.888Z,25.13
2018-07-20T09:54:53.043Z,26.12
2018-07-20T09:55:53.174Z,26.31
2018-07-20T09:56:53.343Z,24.55
2018-07-20T09:57:53.590Z,23.97
2018-07-20T09:58:53.731Z,23.87
2018-07-20T09:59:54.035Z,23.59
2018-07-20T10:00:54.573Z,23.80
2018-07-20T10:01:54.358Z,23.61
2018-07-20T10:02:54.498Z,22.94
2018-07-20T10:03:54.975Z,22.47
2018-07-20T10:04:56.219Z,20.31
2018-07-20T10:05:55.176Z,20.72
2018-07-20T10:06:55.292Z,21.31
2018-07-20T10:07:55.470Z,21.61
2018-07-20T10:08:55.551Z,22.11
2018-07-20T10:09:55.925Z,22.59
2018-07-20T10:10:55.912Z,21.72
2018-07-20T10:11:56.216Z,21.33
2018-07-20T10:12:56.640Z,21.73
2018-07-20T10:13:56.714Z,20.56
2018-07-20T10:14:56.893Z,21.45
2018-07-20T10:15:57.068Z,20.87
2018-07-20T10:16:57.261Z,20.67
2018-07-20T10:17:57.368Z,20.18
2018-07-20T10:18:57.831Z,20.67
2018-07-20T10:19:57.950Z,19.69
2018-07-20T10:20:58.062Z,19.67
2018-07-20T10:21:58.341Z,20.26
2018-07-20T10:22:58.331Z,19.67
2018-07-20T10:23:58.415Z,19.48
2018-07-20T10:24:58.549Z,19.59
2018-07-20T10:25:58.838Z,19.49
2018-07-20T10:26:58.931Z,20.09
2018-07-20T10:27:59.202Z,20.37
2018-07-20T10:28:59.309Z,20.48
2018-07-20T10:29:59.396Z,20.57
2018-07-20T10:30:59.584Z,20.38
2018-07-20T10:31:59.813Z,20.39
2018-07-20T10:33:00.227Z,20.90
2018-07-20T10:34:00.294Z,19.03
2018-07-20T10:35:00.346Z,19.05
2018-07-20T10:36:00.573Z,19.49
2018-07-20T10:37:00.743Z,20.07
2018-07-20T10:38:01.035Z,19.98
2018-07-20T10:39:01.072Z,21.15
2018-07-20T10:40:01.397Z,19.98
2018-07-20T10:41:01.655Z,19.79
2018-07-20T10:42:01.541Z,21.06
2018-07-20T10:43:01.717Z,20.76
2018-07-20T10:44:02.054Z,20.17
2018-07-20T10:45:02.081Z,18.80
2018-07-20T10:46:02.389Z,18.88
2018-07-20T10:47:03.008Z,20.37
2018-07-20T10:48:02.856Z,20.78
2018-07-20T10:49:03.194Z,20.47
2018-07-20T10:50:03.555Z,19.96
2018-07-20T10:51:17.011Z,20.64
2018-07-20T10:52:06.652Z,21.42
2018-07-20T10:53:08.972Z,21.49
2018-07-20T10:54:08.835Z,21.59
2018-07-20T10:55:06.892Z,21.61
2018-07-20T10:56:04.607Z,21.02
2018-07-20T10:57:04.952Z,21.40
2018-07-20T10:58:04.694Z,20.72
2018-07-20T10:59:04.879Z,20.92
2018-07-20T11:00:05.128Z,21.31
2018-07-20T11:01:05.297Z,20.64
2018-07-20T11:02:05.495Z,20.54
2018-07-20T11:03:05.842Z,20.45
2018-07-20T11:04:05.936Z,20.06
2018-07-20T11:05:05.980Z,20.54
2018-07-20T11:06:06.360Z,20.83
2018-07-20T11:07:06.447Z,21.51
2018-07-20T11:08:06.529Z,21.52
2018-07-20T11:09:06.894Z,20.45
2018-07-20T11:10:07.074Z,20.75
2018-07-20T11:11:07.120Z,20.45
2018-07-20T11:12:07.441Z,21.23
2018-07-20T11:13:07.462Z,21.33
2018-07-20T11:14:07.775Z,21.23
2018-07-20T11:15:07.971Z,20.45
2018-07-20T11:16:08.149Z,19.86
2018-07-20T11:17:08.260Z,20.75
2018-07-20T11:18:08.591Z,20.75
2018-07-20T11:19:08.776Z,20.64
2018-07-20T11:20:08.861Z,20.64
2018-07-20T11:21:09.372Z,21.52
2018-07-20T11:22:09.240Z,21.70
2018-07-20T11:23:09.468Z,22.09
2018-07-20T11:24:09.641Z,22.38
2018-07-20T11:25:09.892Z,22.39
2018-07-20T11:26:10.051Z,23.07
2018-07-20T11:27:10.366Z,23.18
2018-07-20T11:28:10.503Z,21.02
2018-07-20T11:29:10.659Z,21.62
2018-07-20T11:30:10.925Z,22.31
2018-07-20T11:31:11.147Z,21.33
2018-07-20T11:32:11.453Z,19.96
2018-07-20T11:33:11.504Z,19.57
2018-07-20T11:34:11.683Z,19.38
2018-07-20T11:35:11.779Z,18.59
2018-07-20T11:36:11.887Z,19.67
2018-07-20T11:37:12.061Z,19.96
2018-07-20T11:38:12.407Z,19.96
2018-07-20T11:39:12.668Z,19.08
2018-07-20T11:40:12.813Z,19.66
2018-07-20T11:41:13.337Z,19.46
2018-07-20T11:42:13.076Z,18.98
2018-07-20T11:43:13.375Z,19.96
2018-07-20T11:44:13.597Z,21.14
2018-07-20T11:45:13.797Z,19.66
2018-07-20T11:46:13.942Z,21.43
2018-07-20T11:47:14.038Z,20.64
2018-07-20T11:48:14.282Z,19.66
2018-07-20T11:49:14.308Z,19.66
2018-07-20T11:50:14.590Z,18.88
2018-07-20T11:51:14.725Z,20.45
2018-07-20T11:52:14.920Z,20.65
2018-07-20T11:53:15.251Z,21.06
2018-07-20T11:54:15.190Z,20.47
2018-07-20T11:55:15.334Z,19.98
2018-07-20T11:56:15.609Z,19.00
2018-07-20T11:57:15.730Z,19.70
2018-07-20T11:58:15.916Z,18.62
2018-07-20T11:59:16.160Z,19.71
2018-07-20T12:00:16.312Z,20.01
2018-07-20T12:01:16.538Z,19.13
2018-07-20T12:02:16.682Z,18.44
2018-07-20T12:03:16.892Z,17.85
2018-07-20T12:04:17.063Z,16.19
2018-07-20T12:05:17.252Z,16.29
2018-07-20T12:06:17.454Z,16.78
2018-07-20T12:07:17.541Z,17.87
2018-07-20T12:08:17.772Z,16.77
2018-07-20T12:09:17.941Z,17.66
2018-07-20T12:10:18.057Z,16.87
2018-07-20T12:11:18.243Z,17.06
2018-07-20T12:12:18.456Z,18.04
2018-07-20T12:13:18.607Z,18.62
2018-07-20T12:14:18.896Z,18.80
2018-07-20T12:15:18.944Z,18.10
2018-07-20T12:16:19.224Z,18.99
2018-07-20T12:17:19.341Z,18.79
2018-07-20T12:18:19.638Z,19.58
2018-07-20T12:19:19.863Z,18.31
2018-07-20T12:20:20.011Z,18.29
2018-07-20T12:21:20.237Z,18.10
2018-07-20T12:22:20.490Z,18.71
2018-07-20T12:23:20.643Z,18.51
2018-07-20T12:24:20.903Z,19.69
2018-07-20T12:25:21.264Z,18.50
2018-07-20T12:26:21.301Z,18.58
2018-07-20T12:27:21.355Z,19.95
2018-07-20T12:28:21.712Z,19.85
2018-07-20T12:29:21.913Z,19.65
2018-07-20T12:30:21.974Z,19.06
2018-07-20T12:31:22.299Z,18.67
2018-07-20T12:32:22.423Z,18.88
2018-07-20T12:33:22.598Z,19.86
2018-07-20T12:34:22.662Z,19.66
2018-07-20T12:35:22.919Z,19.18
2018-07-20T12:36:23.089Z,19.08
2018-07-20T12:37:23.230Z,19.78
2018-07-20T12:38:23.466Z,18.90
2018-07-20T12:39:23.672Z,19.59
2018-07-20T12:40:23.970Z,18.62
2018-07-20T12:41:24.036Z,18.81
2018-07-20T12:42:24.311Z,18.02
2018-07-20T12:43:24.517Z,18.52
2018-07-20T12:44:24.711Z,18.33
2018-07-20T12:45:24.770Z,17.65
2018-07-20T12:46:25.029Z,17.76
2018-07-20T12:47:25.295Z,17.46
2018-07-20T12:48:25.422Z,17.07
2018-07-20T12:49:25.555Z,16.29
2018-07-20T12:50:25.859Z,17.07
2018-07-20T12:51:25.995Z,17.37
2018-07-20T12:52:26.145Z,16.88
2018-07-20T12:53:26.385Z,16.88
2018-07-20T12:54:26.601Z,17.38
2018-07-20T12:55:26.748Z,16.69
2018-07-20T12:56:26.975Z,16.69
2018-07-20T12:57:27.177Z,16.29
2018-07-20T12:58:27.469Z,16.69
2018-07-20T12:59:27.674Z,16.19
2018-07-20T13:00:27.708Z,17.47
2018-07-20T13:01:27.908Z,16.77
2018-07-20T13:02:28.067Z,18.05
2018-07-20T13:03:28.266Z,16.67
2018-07-20T13:04:28.405Z,16.38
2018-07-20T13:05:28.570Z,16.67
2018-07-20T13:06:29.336Z,15.58
2018-07-20T13:07:29.229Z,16.38
2018-07-20T13:08:29.224Z,16.47
2018-07-20T13:09:29.417Z,16.76
2018-07-20T13:10:29.629Z,17.66
2018-07-20T13:11:29.751Z,17.75
2018-07-20T13:12:29.967Z,16.16
2018-07-20T13:13:30.290Z,18.02
2018-07-20T13:14:30.280Z,18.02
2018-07-20T13:15:30.466Z,17.83
2018-07-20T13:16:30.598Z,17.35
2018-07-20T13:17:30.844Z,17.25
2018-07-20T13:18:30.979Z,17.94
2018-07-20T13:19:31.172Z,17.46
2018-07-20T13:20:31.285Z,17.26
2018-07-20T13:21:31.738Z,16.76
2018-07-20T13:22:31.772Z,17.35
2018-07-20T13:23:32.132Z,17.44
2018-07-20T13:24:32.153Z,16.75
2018-07-20T13:25:32.293Z,17.25
2018-07-20T13:26:32.453Z,16.64
2018-07-20T13:27:32.584Z,16.85
2018-07-20T13:28:32.763Z,17.24
2018-07-20T13:29:32.952Z,17.83
2018-07-20T13:30:33.321Z,18.32
2018-07-20T13:31:33.324Z,17.43
2018-07-20T13:32:33.391Z,17.23
2018-07-20T13:33:33.600Z,17.52
2018-07-20T13:34:33.885Z,18.60
2018-07-20T13:35:34.067Z,18.98
2018-07-20T13:36:34.301Z,18.77
2018-07-20T13:37:34.343Z,18.77
2018-07-20T13:38:34.629Z,18.79
2018-07-20T13:39:34.707Z,18.49
2018-07-20T13:40:34.959Z,18.49
2018-07-20T13:41:35.134Z,18.49
2018-07-20T13:42:35.347Z,18.49
2018-07-20T13:43:35.441Z,18.40
2018-07-20T13:44:35.639Z,18.49
2018-07-20T13:45:35.819Z,18.49
2018-07-20T13:46:35.967Z,18.59
2018-07-20T13:47:36.273Z,18.88
2018-07-20T13:48:36.332Z,18.88
2018-07-20T13:49:36.599Z,18.10
2018-07-20T13:50:36.757Z,18.50
2018-07-20T13:51:36.879Z,18.68
2018-07-20T13:52:37.420Z,19.27
2018-07-20T13:53:37.373Z,18.49
2018-07-20T13:54:37.675Z,18.11
2018-07-20T13:55:37.722Z,18.49
2018-07-20T13:56:37.842Z,18.49
2018-07-20T13:57:38.204Z,18.79
2018-07-20T13:58:38.320Z,19.57
2018-07-20T13:59:38.449Z,18.88
2018-07-20T14:00:38.624Z,20.17
2018-07-20T14:01:38.798Z,20.28
2018-07-20T14:02:39.075Z,19.70
2018-07-20T14:03:39.148Z,19.71
2018-07-20T14:04:39.435Z,16.86
2018-07-20T14:05:39.499Z,16.55
2018-07-20T14:06:39.655Z,16.86
2018-07-20T14:07:39.911Z,16.38
2018-07-20T14:08:40.070Z,15.79
2018-07-20T14:09:40.280Z,15.49
2018-07-20T14:10:40.480Z,16.09
2018-07-20T14:11:40.540Z,16.39
2018-07-20T14:12:40.810Z,16.20
2018-07-20T14:13:40.966Z,16.50
2018-07-20T14:14:41.183Z,15.52
2018-07-20T14:15:41.283Z,15.23
2018-07-20T14:16:41.546Z,15.23
2018-07-20T14:17:41.777Z,14.25
2018-07-20T14:18:41.971Z,15.33
2018-07-20T14:19:42.228Z,13.85
2018-07-20T14:20:42.285Z,14.46
2018-07-20T14:21:42.520Z,13.87
2018-07-20T14:22:42.678Z,13.77
2018-07-20T14:23:42.932Z,13.07
2018-07-20T14:24:42.976Z,13.27
2018-07-20T14:25:43.352Z,14.26
2018-07-20T14:26:43.569Z,14.17
2018-07-20T14:27:43.646Z,14.36
2018-07-20T14:28:43.789Z,14.06
2018-07-20T14:29:44.043Z,14.16
2018-07-20T14:30:44.235Z,14.46
2018-07-20T14:31:44.572Z,14.45
2018-07-20T14:32:44.526Z,14.06
2018-07-20T14:33:44.744Z,14.35
2018-07-20T14:34:44.989Z,14.56
2018-07-20T14:35:45.241Z,14.85
2018-07-20T14:36:45.401Z,13.96
2018-07-20T14:37:45.591Z,13.27
2018-07-20T14:38:45.802Z,13.47
2018-07-20T14:39:45.952Z,13.28
2018-07-20T14:40:46.086Z,13.58
2018-07-20T14:41:46.279Z,13.86
2018-07-20T14:42:46.507Z,13.57
2018-07-20T14:43:46.713Z,14.16
2018-07-20T14:44:46.854Z,13.46
2018-07-20T14:45:47.096Z,13.37
2018-07-20T14:46:47.165Z,13.46
2018-07-20T14:47:47.580Z,13.85
2018-07-20T14:48:47.644Z,13.46
2018-07-20T14:49:47.837Z,14.25
2018-07-20T14:50:47.968Z,14.06
2018-07-20T14:51:48.127Z,14.46
2018-07-20T14:52:48.306Z,14.17
2018-07-20T14:53:48.424Z,14.26
2018-07-20T14:54:48.810Z,13.87
2018-07-20T14:55:49.029Z,13.18
2018-07-20T14:56:49.075Z,13.77
2018-07-20T14:57:49.172Z,12.88
2018-07-20T14:58:49.485Z,13.27
2018-07-20T14:59:49.610Z,13.57
2018-07-20T15:00:49.850Z,13.67
2018-07-20T15:01:50.021Z,13.37
2018-07-20T15:02:50.134Z,13.47
2018-07-20T15:03:50.329Z,13.46
2018-07-20T15:04:50.470Z,13.17
2018-07-20T15:05:50.633Z,13.37
2018-07-20T15:06:51.009Z,13.67
2018-07-20T15:07:51.060Z,13.16
2018-07-20T15:08:51.329Z,13.86
2018-07-20T15:09:51.367Z,14.06
2018-07-20T15:10:51.618Z,13.46
2018-07-20T15:11:51.831Z,14.14
2018-07-20T15:12:51.967Z,13.95
2018-07-20T15:13:52.246Z,14.35
2018-07-20T15:14:52.373Z,13.67
2018-07-20T15:15:52.535Z,14.26
2018-07-20T15:16:52.811Z,13.67
2018-07-20T15:17:52.925Z,13.57
2018-07-20T15:18:53.120Z,13.57
2018-07-20T15:19:53.276Z,13.37
2018-07-20T15:20:53.527Z,14.35
2018-07-20T15:21:53.596Z,14.34
2018-07-20T15:22:53.830Z,15.42
2018-07-20T15:23:54.048Z,15.12
2018-07-20T15:24:54.321Z,15.13
2018-07-20T15:25:54.390Z,14.92
2018-07-20T15:26:54.680Z,15.13
2018-07-20T15:27:54.862Z,14.43
2018-07-20T15:28:54.906Z,13.93
2018-07-20T15:29:55.139Z,14.83
2018-07-20T15:30:55.484Z,14.83
2018-07-20T15:31:55.629Z,13.84
2018-07-20T15:32:55.831Z,14.11
2018-07-20T15:33:55.964Z,14.31
2018-07-20T15:34:56.189Z,15.10
2018-07-20T15:35:56.400Z,15.11
2018-07-20T15:36:56.557Z,14.92
2018-07-20T15:37:56.639Z,15.31
2018-07-20T15:38:56.804Z,14.92
2018-07-20T15:39:57.149Z,15.51
2018-07-20T15:40:57.320Z,15.30
2018-07-20T15:41:57.496Z,16.09
2018-07-20T15:42:57.587Z,15.78
2018-07-20T15:43:57.849Z,16.66
2018-07-20T15:44:58.099Z,16.96
2018-07-20T15:46:05.966Z,16.36
2018-07-20T15:46:58.593Z,16.36
2018-07-20T15:47:58.601Z,16.36
2018-07-20T15:48:58.855Z,16.64
2018-07-20T15:49:59.024Z,17.54
2018-07-20T15:50:59.133Z,17.83
2018-07-20T15:53:59.801Z,17.93
2018-07-20T15:55:00.023Z,18.23
2018-07-20T15:56:00.253Z,16.74
2018-07-20T15:57:00.331Z,16.35
2018-07-20T15:58:00.489Z,16.85
2018-07-20T15:59:00.637Z,17.55
2018-07-20T16:00:00.904Z,18.14
2018-07-20T16:01:01.022Z,17.94
2018-07-20T16:02:01.232Z,18.04
2018-07-20T16:03:01.399Z,16.97
2018-07-20T16:04:01.705Z,16.38
2018-07-20T16:05:01.829Z,17.17
2018-07-20T16:06:02.072Z,16.97
2018-07-20T16:07:02.111Z,15.59
2018-07-20T16:08:02.325Z,16.38
2018-07-20T16:09:02.456Z,16.58
2018-07-20T16:10:02.706Z,16.58
2018-07-20T16:11:02.835Z,15.99
2018-07-20T16:12:03.023Z,15.88
2018-07-20T16:13:03.165Z,15.67
2018-07-20T16:14:03.393Z,15.97
2018-07-20T16:15:03.529Z,16.17
2018-07-20T16:16:03.819Z,16.46
2018-07-20T16:17:03.965Z,16.94
2018-07-20T16:18:04.135Z,16.55
2018-07-20T16:19:04.279Z,16.46
2018-07-20T16:20:04.485Z,16.85
2018-07-20T16:21:04.603Z,17.35
2018-07-20T16:22:04.934Z,16.64
2018-07-20T16:23:04.975Z,16.85
2018-07-20T16:24:05.237Z,16.85
2018-07-20T16:25:05.408Z,17.33
2018-07-20T16:26:05.639Z,17.05
2018-07-20T16:27:05.797Z,17.33
2018-07-20T16:28:05.901Z,17.35
2018-07-20T16:29:06.131Z,16.75
2018-07-20T16:30:06.222Z,16.66
2018-07-20T16:31:06.434Z,16.26
2018-07-20T16:32:06.720Z,16.46
2018-07-20T16:33:06.868Z,16.36
2018-07-20T16:34:07.063Z,17.64
2018-07-20T16:35:07.221Z,17.54
2018-07-20T16:36:07.416Z,17.24
2018-07-20T16:37:07.517Z,16.75
2018-07-20T16:38:07.778Z,17.54
2018-07-20T16:39:07.971Z,17.43
2018-07-20T16:40:08.126Z,17.43
2018-07-20T16:42:08.427Z,17.71
2018-07-20T16:43:08.579Z,17.92
2018-07-20T16:44:08.840Z,18.02
2018-07-20T16:45:09.195Z,17.52
2018-07-20T16:46:09.151Z,17.33
2018-07-20T16:47:09.424Z,17.81
2018-07-20T16:48:09.581Z,18.88
2018-07-20T16:49:09.771Z,18.69
2018-07-20T16:50:09.909Z,19.66
2018-07-20T16:51:10.135Z,18.56
2018-07-20T16:52:10.203Z,18.35
2018-07-20T16:53:10.464Z,19.32
2018-07-20T16:54:10.646Z,19.91
2018-07-20T16:55:10.780Z,19.90
2018-07-20T16:56:10.955Z,20.49
2018-07-20T16:57:11.091Z,19.41
2018-07-20T16:58:11.287Z,19.69
2018-07-20T16:59:11.485Z,20.57
2018-07-20T17:00:11.611Z,20.57
2018-07-20T17:01:11.868Z,21.16
2018-07-20T17:02:12.018Z,21.55
2018-07-20T17:03:12.188Z,22.31
2018-07-20T17:04:12.416Z,21.63
2018-07-20T17:05:12.537Z,22.02
2018-07-20T17:06:12.710Z,22.50
2018-07-20T17:07:12.942Z,22.31
2018-07-20T17:08:13.036Z,22.80
2018-07-20T17:09:13.258Z,22.80
2018-07-20T17:10:13.445Z,22.80
2018-07-20T17:11:13.608Z,23.48
2018-07-20T17:12:13.815Z,23.76
2018-07-20T17:13:13.957Z,23.09
2018-07-20T17:14:14.138Z,22.78
2018-07-20T17:15:14.279Z,23.08
2018-07-20T17:16:14.483Z,22.88
2018-07-20T17:17:14.737Z,23.57
2018-07-20T17:18:14.930Z,23.57
2018-07-20T17:19:15.107Z,24.25
2018-07-20T17:20:15.219Z,23.66
2018-07-20T17:21:15.392Z,23.86
2018-07-20T17:22:15.600Z,24.53
2018-07-20T17:23:15.749Z,23.65
2018-07-20T17:24:15.936Z,24.33
2018-07-20T17:25:16.042Z,24.24
2018-07-20T17:26:16.282Z,24.53
2018-07-20T17:27:16.402Z,24.43
2018-07-20T17:28:16.736Z,24.42
2018-07-20T17:29:16.819Z,24.53
2018-07-20T17:30:16.934Z,24.24
2018-07-20T17:31:17.129Z,24.33
2018-07-20T17:32:17.272Z,24.42
2018-07-20T17:33:17.455Z,24.91
2018-07-20T17:34:17.674Z,25.01
2018-07-20T17:35:17.890Z,24.71
2018-07-20T17:36:18.124Z,26.18
2018-07-20T17:37:18.257Z,25.99
2018-07-20T17:38:18.367Z,24.91
2018-07-20T17:39:18.502Z,24.42
2018-07-20T17:40:18.765Z,24.71
2018-07-20T17:41:18.850Z,25.10
2018-07-20T17:42:19.144Z,25.49
2018-07-20T17:43:19.568Z,25.98
2018-07-20T17:44:19.469Z,26.28
2018-07-20T17:45:19.644Z,26.46
2018-07-20T17:46:19.856Z,25.49
2018-07-20T17:47:19.950Z,25.98
2018-07-20T17:48:20.102Z,25.78
2018-07-20T17:49:20.356Z,25.78
2018-07-20T17:50:20.574Z,25.98
2018-07-20T17:51:20.747Z,26.06
2018-07-20T17:52:20.903Z,26.15
2018-07-20T17:53:21.103Z,26.45
2018-07-20T17:54:21.247Z,27.03
2018-07-20T17:55:21.432Z,27.81
2018-07-20T17:56:21.567Z,27.23
2018-07-20T17:57:21.693Z,26.93
2018-07-20T17:58:21.970Z,27.23
2018-07-20T17:59:22.085Z,27.03
2018-07-20T18:00:22.255Z,26.43
2018-07-20T18:01:22.364Z,26.63
2018-07-20T18:02:22.775Z,27.12
2018-07-20T18:03:22.981Z,27.22
2018-07-20T18:04:23.099Z,26.43
2018-07-20T18:05:23.164Z,26.34
2018-07-20T18:06:23.389Z,27.20
2018-07-20T18:07:23.553Z,27.50
2018-07-20T18:08:23.708Z,27.30
2018-07-20T18:09:23.847Z,27.50
2018-07-20T18:10:24.115Z,28.28
2018-07-20T18:11:24.174Z,28.77
2018-07-20T18:12:24.362Z,28.47
2018-07-20T18:13:24.698Z,28.38
2018-07-20T18:14:24.904Z,28.45
2018-07-20T18:15:24.968Z,28.75
2018-07-20T18:16:25.150Z,27.87
2018-07-20T18:17:25.524Z,27.58
2018-07-20T18:18:28.343Z,28.16
2018-07-20T18:25:26.145Z,29.91
2018-07-20T18:27:31.555Z,30.29
2018-07-20T18:28:28.316Z,30.78
2018-07-20T18:30:37.144Z,31.54
2018-07-20T18:34:23.102Z,31.06
2018-07-20T18:35:27.987Z,32.50
2018-07-20T18:36:21.480Z,32.50
2018-07-20T18:38:21.042Z,33.58
2018-07-20T18:39:20.157Z,33.38
2018-07-20T18:40:20.227Z,33.96
2018-07-20T18:41:20.403Z,33.96
2018-07-20T18:42:20.569Z,34.82
2018-07-20T18:43:20.745Z,35.41
2018-07-20T18:44:20.884Z,35.11
2018-07-20T18:45:21.013Z,34.63
2018-07-20T18:46:21.179Z,34.61
2018-07-20T18:47:21.383Z,34.90
2018-07-20T18:48:21.575Z,35.49
2018-07-20T18:49:22.025Z,36.36
2018-07-20T18:50:21.902Z,36.73
2018-07-20T18:51:23.764Z,36.73
2018-07-20T18:52:22.331Z,36.52
2018-07-20T18:53:22.418Z,36.13
2018-07-20T18:54:22.540Z,36.52
2018-07-20T18:55:22.688Z,36.71
2018-07-20T18:56:23.337Z,36.71
2018-07-20T19:00:22.985Z,36.99
2018-07-20T19:01:23.950Z,37.08
2018-07-20T19:02:26.863Z,36.69
2018-07-20T19:03:23.959Z,37.28
2018-07-20T19:04:27.172Z,37.45
2018-07-20T19:05:27.596Z,38.04
2018-07-20T19:06:25.678Z,37.94
2018-07-20T19:07:25.484Z,37.45
2018-07-20T19:08:28.573Z,37.65
2018-07-20T19:09:36.576Z,37.73
2018-07-20T19:11:28.368Z,38.21
2018-07-20T19:12:25.132Z,38.99
2018-07-20T19:13:25.745Z,38.89
2018-07-20T19:14:29.836Z,38.78
2018-07-20T19:15:29.628Z,39.06
2018-07-20T19:16:34.095Z,39.16
2018-07-20T19:17:24.837Z,39.74
2018-07-20T19:18:23.989Z,40.13
2018-07-20T19:19:23.953Z,40.23
2018-07-20T19:20:24.160Z,39.84
2018-07-20T19:21:24.415Z,39.72
2018-07-20T19:22:24.630Z,39.72
2018-07-20T19:23:24.779Z,39.53
2018-07-20T19:24:24.931Z,39.43
2018-07-20T19:25:27.086Z,39.34
2018-07-20T19:26:25.396Z,39.72
2018-07-20T19:27:25.667Z,39.53
2018-07-20T19:28:25.820Z,39.51
2018-07-20T19:29:25.895Z,40.31
2018-07-20T19:30:26.168Z,40.48
2018-07-20T19:31:26.366Z,41.25
2018-07-20T19:32:26.366Z,41.35
2018-07-20T19:33:26.597Z,41.74
2018-07-20T19:34:26.870Z,41.83
2018-07-20T19:35:27.078Z,42.32
2018-07-20T19:36:27.374Z,41.74
2018-07-20T19:37:27.430Z,42.22
2018-07-20T19:38:27.670Z,42.32
2018-07-20T19:39:27.985Z,42.10
2018-07-20T19:40:28.025Z,42.00
2018-07-20T19:41:28.267Z,42.59
2018-07-20T19:42:28.489Z,43.07
2018-07-20T19:43:28.735Z,44.04
2018-07-20T19:44:28.741Z,44.33
2018-07-20T19:45:28.861Z,45.01
2018-07-20T19:46:30.403Z,45.37
2018-07-20T19:47:29.494Z,45.57
2018-07-20T19:48:29.989Z,45.86
2018-07-20T19:49:29.562Z,46.34
2018-07-20T19:50:29.812Z,45.83
2018-07-20T19:51:30.798Z,46.70
2018-07-20T19:52:31.100Z,47.28
2018-07-20T19:53:30.675Z,47.45
2018-07-20T19:54:31.518Z,47.16
2018-07-20T19:55:30.738Z,47.45
2018-07-20T19:56:31.299Z,47.36
2018-07-20T19:57:31.474Z,47.36
2018-07-20T19:58:31.400Z,47.45
2018-07-20T19:59:31.359Z,47.65
2018-07-20T20:00:31.433Z,48.21
2018-07-20T20:01:31.551Z,48.30
2018-07-20T20:02:31.950Z,48.11
2018-07-20T20:03:32.336Z,49.07
2018-07-20T20:04:32.996Z,49.46
2018-07-20T20:05:32.492Z,49.17
2018-07-20T20:06:32.997Z,49.75
2018-07-20T20:07:32.907Z,49.46
2018-07-20T20:08:33.068Z,49.07
2018-07-20T20:09:33.251Z,48.95
2018-07-20T20:10:33.485Z,48.76
2018-07-20T20:11:33.477Z,48.66
2018-07-20T20:12:33.610Z,48.37
2018-07-20T20:13:33.917Z,48.66
2018-07-20T20:14:34.153Z,48.95
2018-07-20T20:15:34.514Z,48.95
2018-07-20T20:16:34.572Z,48.86
2018-07-20T20:17:34.777Z,48.66
2018-07-20T20:18:34.826Z,48.28
2018-07-20T20:19:35.046Z,48.76
2018-07-20T20:20:35.267Z,49.05
2018-07-20T20:21:35.607Z,49.24
2018-07-20T20:22:35.807Z,49.63
2018-07-20T20:23:36.007Z,49.24
2018-07-20T20:24:36.061Z,49.60
2018-07-20T20:25:36.210Z,49.51
2018-07-20T20:26:36.607Z,50.18
2018-07-20T20:27:36.845Z,50.09
2018-07-20T20:28:36.761Z,49.80
2018-07-20T20:29:36.950Z,50.28
2018-07-20T20:30:37.043Z,50.28
2018-07-20T20:31:37.381Z,50.28
2018-07-20T20:32:37.647Z,50.18
2018-07-20T20:33:37.590Z,50.96
2018-07-20T20:34:37.828Z,50.96
2018-07-20T20:35:38.172Z,50.93
2018-07-20T20:36:38.128Z,50.28
2018-07-20T20:37:38.346Z,50.16
2018-07-20T20:38:38.419Z,50.54
2018-07-20T20:39:38.778Z,50.45